createdAt,value
2018-09-17T00:00:32.285Z,2.10
2018-09-17T00:03:01.655Z,2.13
2018-09-17T00:05:30.995Z,2.60
2018-09-17T00:08:00.307Z,2.00
2018-09-17T00:10:30.716Z,2.47
2018-09-17T00:13:00.034Z,2.30
2018-09-17T00:15:29.394Z,2.13
2018-09-17T00:17:58.686Z,2.57
2018-09-17T00:20:27.899Z,2.00
2018-09-17T00:22:57.132Z,2.30
2018-09-17T00:25:26.424Z,2.20
2018-09-17T00:27:55.735Z,2.40
2018-09-17T00:30:25.067Z,2.23
2018-09-17T00:32:54.362Z,2.33
2018-09-17T00:35:23.678Z,2.20
2018-09-17T00:37:53.003Z,2.00
2018-09-17T00:40:22.251Z,2.10
2018-09-17T00:42:51.611Z,2.07
2018-09-17T00:45:20.919Z,2.20
2018-09-17T00:47:50.183Z,2.40
2018-09-17T00:50:19.681Z,2.20
2018-09-17T00:52:48.967Z,2.30
2018-09-17T00:55:18.318Z,2.50
2018-09-17T00:57:47.587Z,2.60
2018-09-17T01:00:16.924Z,2.70
2018-09-17T01:02:46.154Z,2.57
2018-09-17T01:05:17.511Z,2.60
2018-09-17T01:07:46.740Z,2.57
2018-09-17T01:10:15.958Z,2.60
2018-09-17T01:12:45.214Z,2.43
2018-09-17T01:15:14.469Z,2.40
2018-09-17T01:17:43.750Z,2.40
2018-09-17T01:20:13.030Z,2.80
2018-09-17T01:22:42.388Z,2.40
2018-09-17T01:25:11.684Z,2.40
2018-09-17T01:27:40.929Z,2.63
2018-09-17T01:30:10.246Z,2.53
2018-09-17T01:32:39.724Z,2.70
2018-09-17T01:35:09.023Z,2.40
2018-09-17T01:37:38.288Z,2.60
2018-09-17T01:40:07.578Z,3.13
2018-09-17T01:42:36.915Z,2.60
2018-09-17T01:45:06.338Z,2.97
2018-09-17T01:47:35.598Z,2.87
2018-09-17T01:50:05.410Z,2.80
2018-09-17T01:52:34.751Z,2.80
2018-09-17T01:55:04.346Z,2.20
2018-09-17T01:57:33.672Z,2.93
2018-09-17T02:00:02.927Z,2.40
2018-09-17T02:02:32.403Z,2.20
2018-09-17T02:05:01.664Z,2.07
2018-09-17T02:07:30.918Z,2.50
2018-09-17T02:10:00.207Z,2.70
2018-09-17T02:12:29.426Z,2.33
2018-09-17T02:14:58.665Z,2.57
2018-09-17T02:17:28.000Z,2.20
2018-09-17T02:19:57.240Z,1.97
2018-09-17T02:22:26.545Z,2.40
2018-09-17T02:24:55.852Z,2.20
2018-09-17T02:27:25.098Z,2.30
2018-09-17T02:29:54.356Z,2.40
2018-09-17T02:32:23.633Z,2.37
2018-09-17T02:34:52.883Z,2.50
2018-09-17T02:37:22.194Z,2.40
2018-09-17T02:39:51.524Z,2.17
2018-09-17T02:42:20.838Z,2.63
2018-09-17T02:44:50.135Z,2.40
2018-09-17T02:47:19.412Z,2.57
2018-09-17T02:49:48.636Z,2.80
2018-09-17T02:52:18.121Z,2.30
2018-09-17T02:54:47.398Z,2.33
2018-09-17T02:57:16.807Z,2.60
2018-09-17T02:59:46.182Z,2.50
2018-09-17T03:02:15.568Z,2.90
2018-09-17T03:04:44.891Z,3.00
2018-09-17T03:07:14.184Z,2.40
2018-09-17T03:09:43.447Z,2.20
2018-09-17T03:12:12.735Z,2.90
2018-09-17T03:14:42.052Z,3.07
2018-09-17T03:17:14.091Z,2.87
2018-09-17T03:19:44.498Z,2.70
2018-09-17T03:22:14.362Z,2.70
2018-09-17T03:24:43.627Z,2.60
2018-09-17T03:27:12.910Z,2.50
2018-09-17T03:29:42.105Z,2.60
2018-09-17T03:32:11.437Z,2.40
2018-09-17T03:34:40.746Z,2.80
2018-09-17T03:37:14.088Z,2.60
2018-09-17T03:39:43.356Z,2.47
2018-09-17T03:42:12.579Z,2.60
2018-09-17T03:44:41.827Z,2.73
2018-09-17T03:47:11.101Z,2.60
2018-09-17T03:49:40.419Z,2.37
2018-09-17T03:52:09.656Z,3.00
2018-09-17T03:54:38.945Z,3.23
2018-09-17T03:57:08.291Z,3.30
2018-09-17T03:59:41.652Z,3.10
2018-09-17T04:02:10.920Z,2.80
2018-09-17T04:04:40.539Z,2.30
2018-09-17T04:07:10.524Z,3.20
2018-09-17T04:09:43.224Z,2.70
2018-09-17T04:12:13.210Z,2.80
2018-09-17T04:14:42.472Z,3.03
2018-09-17T04:17:11.866Z,3.30
2018-09-17T04:19:41.113Z,2.97
2018-09-17T04:22:12.108Z,2.93
2018-09-17T04:24:41.376Z,3.47
2018-09-17T04:27:10.617Z,3.30
2018-09-17T04:29:39.883Z,2.90
2018-09-17T04:32:09.157Z,3.30
2018-09-17T04:34:38.472Z,3.17
2018-09-17T04:37:07.776Z,2.73
2018-09-17T04:39:37.431Z,3.10
2018-09-17T04:42:07.051Z,3.27
2018-09-17T04:44:36.647Z,4.00
2018-09-17T04:47:06.040Z,4.23
2018-09-17T04:49:36.317Z,4.03
2018-09-17T04:52:10.495Z,3.60
2018-09-17T04:54:40.270Z,4.50
2018-09-17T04:57:09.538Z,4.50
2018-09-17T04:59:38.951Z,4.17
2018-09-17T05:02:08.281Z,4.20
2018-09-17T05:04:38.688Z,4.37
2018-09-17T05:07:08.029Z,3.93
2018-09-17T05:09:37.267Z,4.60
2018-09-17T05:12:06.660Z,4.53
2018-09-17T05:14:36.089Z,5.00
2018-09-17T05:17:05.367Z,5.17
2018-09-17T05:19:34.655Z,4.50
2018-09-17T05:22:04.006Z,5.17
2018-09-17T05:24:33.295Z,4.43
2018-09-17T05:27:02.549Z,4.20
2018-09-17T05:29:31.812Z,4.37
2018-09-17T05:32:01.066Z,4.80
2018-09-17T05:34:30.391Z,4.27
2018-09-17T05:36:59.674Z,4.73
2018-09-17T05:39:28.928Z,4.80
2018-09-17T05:41:58.183Z,5.77
2018-09-17T05:44:27.478Z,4.60
2018-09-17T05:46:56.716Z,4.90
2018-09-17T05:49:26.100Z,4.33
2018-09-17T05:51:55.449Z,4.07
2018-09-17T05:54:24.778Z,4.40
2018-09-17T05:56:54.039Z,4.17
2018-09-17T05:59:23.332Z,4.20
2018-09-17T06:01:52.986Z,4.50
2018-09-17T06:04:22.291Z,4.57
2018-09-17T06:06:51.645Z,4.90
2018-09-17T06:09:21.094Z,5.10
2018-09-17T06:11:50.437Z,4.97
2018-09-17T06:14:19.728Z,5.10
2018-09-17T06:16:49.026Z,5.20
2018-09-17T06:19:18.255Z,5.13
2018-09-17T06:21:47.558Z,6.00
2018-09-17T06:24:16.858Z,5.33
2018-09-17T06:26:46.115Z,6.10
2018-09-17T06:29:15.471Z,5.83
2018-09-17T06:31:44.767Z,5.17
2018-09-17T06:34:14.083Z,5.47
2018-09-17T06:36:43.398Z,5.00
2018-09-17T06:39:12.663Z,4.67
2018-09-17T06:41:42.028Z,4.60
2018-09-17T06:44:17.248Z,5.33
2018-09-17T06:46:46.427Z,5.23
2018-09-17T06:49:15.764Z,5.50
2018-09-17T06:51:45.284Z,5.07
2018-09-17T06:54:14.536Z,6.13
2018-09-17T06:56:44.812Z,5.73
2018-09-17T06:59:14.059Z,5.70
2018-09-17T07:01:43.363Z,6.30
2018-09-17T07:04:12.675Z,6.20
2018-09-17T07:06:42.036Z,6.43
2018-09-17T07:09:12.299Z,6.30
2018-09-17T07:11:41.619Z,7.20
2018-09-17T07:14:10.951Z,6.90
2018-09-17T07:16:40.167Z,7.00
2018-09-17T07:19:09.482Z,6.93
2018-09-17T07:21:38.699Z,6.53
2018-09-17T07:24:07.976Z,8.20
2018-09-17T07:26:37.248Z,7.60
2018-09-17T07:29:06.868Z,8.03
2018-09-17T07:31:36.208Z,7.17
2018-09-17T07:34:05.541Z,7.03
2018-09-17T07:36:34.875Z,6.77
2018-09-17T07:39:05.951Z,5.90
2018-09-17T07:41:35.259Z,7.10
2018-09-17T07:44:04.519Z,5.97
2018-09-17T07:46:33.793Z,5.87
2018-09-17T07:49:03.098Z,6.10
2018-09-17T07:51:32.346Z,6.00
2018-09-17T07:54:01.655Z,5.20
2018-09-17T07:56:30.992Z,5.70
2018-09-17T07:59:00.209Z,5.40
2018-09-17T08:01:29.466Z,5.83
2018-09-17T08:03:58.754Z,5.77
2018-09-17T08:06:28.349Z,5.90
2018-09-17T08:08:57.612Z,5.10
2018-09-17T08:11:26.869Z,5.43
2018-09-17T08:13:56.431Z,5.00
2018-09-17T08:16:25.683Z,5.13
2018-09-17T08:18:54.899Z,5.07
2018-09-17T08:21:24.126Z,4.97
2018-09-17T08:23:53.417Z,5.00
2018-09-17T08:26:23.808Z,4.97
2018-09-17T08:28:53.108Z,5.20
2018-09-17T08:31:22.446Z,5.10
2018-09-17T08:33:51.691Z,5.13
2018-09-17T08:36:20.955Z,4.73
2018-09-17T08:38:50.258Z,5.13
2018-09-17T08:41:19.548Z,5.43
2018-09-17T08:43:49.035Z,4.53
2018-09-17T08:46:18.362Z,5.00
2018-09-17T08:48:47.754Z,4.63
2018-09-17T08:51:17.038Z,5.20
2018-09-17T08:53:46.300Z,4.57
2018-09-17T08:56:20.509Z,4.80
2018-09-17T08:58:55.143Z,4.87
2018-09-17T09:01:29.631Z,4.50
2018-09-17T09:04:04.040Z,5.37
2018-09-17T09:06:38.736Z,5.17
2018-09-17T09:09:11.389Z,4.87
2018-09-17T09:11:45.982Z,5.07
2018-09-17T09:14:20.641Z,4.47
2018-09-17T09:16:49.866Z,4.20
2018-09-17T09:19:19.163Z,4.90
2018-09-17T09:21:48.417Z,4.10
2018-09-17T09:24:17.637Z,4.10
2018-09-17T09:26:46.880Z,3.30
2018-09-17T09:29:16.204Z,3.00
2018-09-17T09:31:45.426Z,2.90
2018-09-17T09:34:14.707Z,2.30
2018-09-17T09:36:44.046Z,3.30
2018-09-17T09:39:13.355Z,2.87
2018-09-17T09:41:45.123Z,2.50
2018-09-17T09:44:14.421Z,2.60
2018-09-17T09:46:43.723Z,2.30
2018-09-17T09:49:12.968Z,1.97
2018-09-17T09:51:42.217Z,2.60
2018-09-17T09:54:11.516Z,2.47
2018-09-17T09:56:40.981Z,2.90
2018-09-17T09:59:10.531Z,2.03
2018-09-17T10:01:45.010Z,3.57
2018-09-17T10:04:19.592Z,2.50
2018-09-17T10:06:48.930Z,2.33
2018-09-17T10:09:23.612Z,2.77
2018-09-17T10:11:58.303Z,2.33
2018-09-17T10:14:32.712Z,2.57
2018-09-17T10:17:07.311Z,2.37
2018-09-17T10:19:40.714Z,2.40
2018-09-17T10:22:09.991Z,2.40
2018-09-17T10:24:39.303Z,2.40
2018-09-17T10:27:08.639Z,2.30
2018-09-17T10:29:37.871Z,1.90
2018-09-17T10:32:07.161Z,2.57
2018-09-17T10:34:36.400Z,2.47
2018-09-17T10:37:05.723Z,2.40
2018-09-17T10:39:35.166Z,2.33
2018-09-17T10:42:04.463Z,2.80
2018-09-17T10:44:33.787Z,2.63
2018-09-17T10:47:03.121Z,2.40
2018-09-17T10:49:32.328Z,2.63
2018-09-17T10:52:01.610Z,2.70
2018-09-17T10:54:30.871Z,2.63
2018-09-17T10:57:01.375Z,2.63
2018-09-17T10:59:30.661Z,3.00
2018-09-17T11:01:59.962Z,2.80
2018-09-17T11:04:29.279Z,2.67
2018-09-17T11:06:58.511Z,2.80
2018-09-17T11:09:27.787Z,2.83
2018-09-17T11:11:57.049Z,3.10
2018-09-17T11:14:26.356Z,2.93
2018-09-17T11:16:55.574Z,3.13
2018-09-17T11:19:24.861Z,2.73
2018-09-17T11:21:54.094Z,2.80
2018-09-17T11:24:23.330Z,2.47
2018-09-17T11:26:52.571Z,2.50
2018-09-17T11:29:22.168Z,2.50
2018-09-17T11:31:51.432Z,2.10
2018-09-17T11:34:20.695Z,2.47
2018-09-17T11:36:50.084Z,2.73
2018-09-17T11:39:19.363Z,3.10
2018-09-17T11:41:48.653Z,3.43
2018-09-17T11:44:17.944Z,2.80
2018-09-17T11:46:47.202Z,2.60
2018-09-17T11:49:16.515Z,2.77
2018-09-17T11:51:45.722Z,2.40
2018-09-17T11:54:14.974Z,2.50
2018-09-17T11:56:44.264Z,2.63
2018-09-17T11:59:13.483Z,2.40
2018-09-17T12:01:48.090Z,2.40
2018-09-17T12:04:21.437Z,2.17
2018-09-17T12:06:55.927Z,2.10
2018-09-17T12:09:25.282Z,2.20
2018-09-17T12:11:54.497Z,2.53
2018-09-17T12:14:23.760Z,2.57
2018-09-17T12:16:53.047Z,2.60
2018-09-17T12:19:22.374Z,2.40
2018-09-17T12:21:51.885Z,2.70
2018-09-17T12:24:21.132Z,2.40
2018-09-17T12:26:50.467Z,1.90
2018-09-17T12:29:19.745Z,2.73
2018-09-17T12:31:49.014Z,2.90
2018-09-17T12:34:18.272Z,2.10
2018-09-17T12:36:47.566Z,2.47
2018-09-17T12:39:16.835Z,2.53
2018-09-17T12:41:46.139Z,2.20
2018-09-17T12:44:15.379Z,2.30
2018-09-17T12:46:44.619Z,2.23
2018-09-17T12:49:13.863Z,2.30
2018-09-17T12:51:43.141Z,2.10
2018-09-17T12:54:12.453Z,2.47
2018-09-17T12:56:41.824Z,2.60
2018-09-17T12:59:11.336Z,2.30
2018-09-17T13:01:40.552Z,2.27
2018-09-17T13:04:09.826Z,2.07
2018-09-17T13:06:39.128Z,5.43
2018-09-17T13:09:10.018Z,2.37
2018-09-17T13:11:39.687Z,2.20
2018-09-17T13:14:08.973Z,2.57
2018-09-17T13:16:39.078Z,3.03
2018-09-17T13:19:10.644Z,2.60
2018-09-17T13:21:40.191Z,2.60
2018-09-17T13:24:09.456Z,2.17
2018-09-17T13:26:39.174Z,2.10
2018-09-17T13:29:08.435Z,2.13
2018-09-17T13:31:37.663Z,2.23
2018-09-17T13:34:06.878Z,2.00
2018-09-17T13:36:36.108Z,2.33
2018-09-17T13:39:06.143Z,2.20
2018-09-17T13:41:35.412Z,2.40
2018-09-17T13:44:04.690Z,2.47
2018-09-17T13:46:33.964Z,2.50
2018-09-17T13:49:03.223Z,2.83
2018-09-17T13:51:32.494Z,2.50
2018-09-17T13:54:01.741Z,1.90
2018-09-17T13:56:30.991Z,2.57
2018-09-17T13:59:00.262Z,2.67
2018-09-17T14:01:29.464Z,2.00
2018-09-17T14:03:58.714Z,2.00
2018-09-17T14:06:27.982Z,1.90
2018-09-17T14:08:57.234Z,2.63
2018-09-17T14:11:27.608Z,1.80
2018-09-17T14:13:56.855Z,2.23
2018-09-17T14:16:31.381Z,2.00
2018-09-17T14:19:00.618Z,2.10
2018-09-17T14:21:30.171Z,1.93
2018-09-17T14:23:59.628Z,2.70
2018-09-17T14:26:29.439Z,2.37
2018-09-17T14:28:58.855Z,2.60
2018-09-17T14:31:33.409Z,2.47
2018-09-17T14:34:02.682Z,2.13
2018-09-17T14:36:31.883Z,2.50
2018-09-17T14:39:01.188Z,2.13
2018-09-17T14:41:30.431Z,2.20
2018-09-17T14:43:59.710Z,2.60
2018-09-17T14:46:28.992Z,2.30
2018-09-17T14:48:58.211Z,2.00
2018-09-17T14:51:27.530Z,2.10
2018-09-17T14:53:56.782Z,2.00
2018-09-17T14:56:26.125Z,2.20
2018-09-17T14:58:55.387Z,2.10
2018-09-17T15:01:24.617Z,2.83
2018-09-17T15:03:53.887Z,2.60
2018-09-17T15:06:23.223Z,2.73
2018-09-17T15:08:52.637Z,3.00
2018-09-17T15:11:21.838Z,2.60
2018-09-17T15:13:51.150Z,2.30
2018-09-17T15:16:20.440Z,2.30
2018-09-17T15:18:50.488Z,1.97
2018-09-17T15:21:19.726Z,2.67
2018-09-17T15:23:49.107Z,2.67
2018-09-17T15:26:18.419Z,2.70
2018-09-17T15:28:52.590Z,2.50
2018-09-17T15:31:22.027Z,2.80
2018-09-17T15:33:51.132Z,2.87
2018-09-17T15:36:20.358Z,2.83
2018-09-17T15:38:49.651Z,2.47
2018-09-17T15:41:19.101Z,2.47
2018-09-17T15:43:48.318Z,2.70
2018-09-17T15:46:22.731Z,2.43
2018-09-17T15:48:52.026Z,2.40
2018-09-17T15:51:23.339Z,2.30
2018-09-17T15:53:52.614Z,2.20
2018-09-17T15:56:21.924Z,2.30
2018-09-17T15:58:51.143Z,2.20
2018-09-17T16:01:20.455Z,2.40
2018-09-17T16:03:57.872Z,2.13
2018-09-17T16:06:27.150Z,2.53
2018-09-17T16:08:56.415Z,2.23
2018-09-17T16:11:25.667Z,2.63
2018-09-17T16:13:56.000Z,2.47
2018-09-17T16:16:25.280Z,2.60
2018-09-17T16:18:54.593Z,2.80
2018-09-17T16:21:23.881Z,2.60
2018-09-17T16:23:53.219Z,3.70
2018-09-17T16:26:22.477Z,3.00
2018-09-17T16:28:51.675Z,2.43
2018-09-17T16:31:20.967Z,2.70
2018-09-17T16:33:55.267Z,2.30
2018-09-17T16:36:24.474Z,2.43
2018-09-17T16:38:53.663Z,2.60
2018-09-17T16:41:25.040Z,2.50
2018-09-17T16:43:54.305Z,2.97
2018-09-17T16:46:23.535Z,3.17
2018-09-17T16:48:52.794Z,3.07
2018-09-17T16:51:22.017Z,3.13
2018-09-17T16:53:51.294Z,2.80
2018-09-17T16:56:20.663Z,2.60
2018-09-17T16:58:49.951Z,2.70
2018-09-17T17:01:19.309Z,3.27
2018-09-17T17:03:48.597Z,3.00
2018-09-17T17:06:18.755Z,2.90
2018-09-17T17:08:48.002Z,2.30
2018-09-17T17:11:17.301Z,3.33
2018-09-17T17:13:46.871Z,2.97
2018-09-17T17:16:16.265Z,3.37
2018-09-17T17:18:45.547Z,4.07
2018-09-17T17:21:14.791Z,4.73
2018-09-17T17:23:44.060Z,4.20
2018-09-17T17:26:13.328Z,4.97
2018-09-17T17:28:42.751Z,4.00
2018-09-17T17:31:11.995Z,5.30
2018-09-17T17:33:42.410Z,5.73
2018-09-17T17:36:12.784Z,4.57
2018-09-17T17:38:42.050Z,5.43
2018-09-17T17:41:11.370Z,4.93
2018-09-17T17:43:40.631Z,5.57
2018-09-17T17:46:10.070Z,4.90
2018-09-17T17:48:39.183Z,4.33
2018-09-17T17:51:08.698Z,4.13
2018-09-17T17:53:37.975Z,4.27
2018-09-17T17:56:07.267Z,4.20
2018-09-17T17:58:36.503Z,3.30
2018-09-17T18:01:05.883Z,3.33
2018-09-17T18:03:35.031Z,3.73
2018-09-17T18:06:04.424Z,4.57
2018-09-17T18:08:33.671Z,4.80
2018-09-17T18:11:02.962Z,4.63
2018-09-17T18:13:32.298Z,4.70
2018-09-17T18:16:01.512Z,4.53
2018-09-17T18:18:30.766Z,4.00
2018-09-17T18:21:00.049Z,3.60
2018-09-17T18:23:29.328Z,4.83
2018-09-17T18:25:58.590Z,4.83
2018-09-17T18:28:27.790Z,3.83
2018-09-17T18:30:57.085Z,4.00
2018-09-17T18:33:26.435Z,4.50
2018-09-17T18:35:55.657Z,4.63
2018-09-17T18:38:24.931Z,4.67
2018-09-17T18:40:54.186Z,4.40
2018-09-17T18:43:23.474Z,4.57
2018-09-17T18:45:52.792Z,4.70
2018-09-17T18:48:22.249Z,3.93
2018-09-17T18:50:51.435Z,4.70
2018-09-17T18:53:20.656Z,4.07
2018-09-17T18:55:49.935Z,4.40
2018-09-17T18:58:19.411Z,4.37
2018-09-17T19:00:48.663Z,4.60
2018-09-17T19:03:18.009Z,4.17
2018-09-17T19:05:47.497Z,4.50
2018-09-17T19:08:16.747Z,3.83
2018-09-17T19:10:46.018Z,4.30
2018-09-17T19:13:15.268Z,4.00
2018-09-17T19:15:57.675Z,4.10
2018-09-17T19:18:26.890Z,4.37
2018-09-17T19:21:02.818Z,4.10
2018-09-17T19:23:37.279Z,3.63
2018-09-17T19:26:06.597Z,4.20
2018-09-17T19:28:41.011Z,4.03
2018-09-17T19:31:10.271Z,3.53
2018-09-17T19:33:39.541Z,3.53
2018-09-17T19:36:08.898Z,4.00
2018-09-17T19:38:43.299Z,3.83
2018-09-17T19:41:12.569Z,3.73
2018-09-17T19:43:41.945Z,3.53
2018-09-17T19:46:16.788Z,3.47
2018-09-17T19:48:46.055Z,3.10
2018-09-17T19:51:20.509Z,3.73
2018-09-17T19:53:49.789Z,3.37
2018-09-17T19:56:19.040Z,4.00
2018-09-17T19:58:54.683Z,3.90
2018-09-17T20:01:23.954Z,3.53
2018-09-17T20:03:53.263Z,3.47
2018-09-17T20:06:27.900Z,3.47
2018-09-17T20:08:57.280Z,4.00
2018-09-17T20:11:26.564Z,3.70
2018-09-17T20:13:56.922Z,3.60
2018-09-17T20:16:26.258Z,3.43
2018-09-17T20:18:55.475Z,3.10
2018-09-17T20:21:24.670Z,3.30
2018-09-17T20:23:55.114Z,3.67
2018-09-17T20:26:24.374Z,3.47
2018-09-17T20:28:53.583Z,3.70
2018-09-17T20:31:22.897Z,3.60
2018-09-17T20:33:52.090Z,3.73
2018-09-17T20:36:21.385Z,4.00
2018-09-17T20:38:50.676Z,3.73
2018-09-17T20:41:19.964Z,3.63
2018-09-17T20:43:49.215Z,3.90
2018-09-17T20:46:23.439Z,3.77
2018-09-17T20:48:52.803Z,9.33
2018-09-17T20:51:22.031Z,4.20
2018-09-17T20:53:51.323Z,3.40
2018-09-17T20:56:20.831Z,3.40
2018-09-17T20:58:50.063Z,3.37
2018-09-17T21:01:19.481Z,3.30
2018-09-17T21:03:48.630Z,3.40
2018-09-17T21:06:17.907Z,3.53
2018-09-17T21:08:47.227Z,3.07
2018-09-17T21:11:16.470Z,3.20
2018-09-17T21:13:45.799Z,3.30
2018-09-17T21:16:15.052Z,3.63
2018-09-17T21:18:44.419Z,3.13
2018-09-17T21:21:13.652Z,3.30
2018-09-17T21:23:42.899Z,3.23
2018-09-17T21:26:12.198Z,3.03
2018-09-17T21:28:42.382Z,3.33
2018-09-17T21:31:11.846Z,3.50
2018-09-17T21:33:41.092Z,3.40
2018-09-17T21:36:10.368Z,3.13
2018-09-17T21:38:39.611Z,3.17
2018-09-17T21:41:08.903Z,3.30
2018-09-17T21:43:38.265Z,3.27
2018-09-17T21:46:08.218Z,3.00
2018-09-17T21:48:37.523Z,3.40
2018-09-17T21:51:06.849Z,3.10
2018-09-17T21:53:36.164Z,3.50
2018-09-17T21:56:05.655Z,3.23
2018-09-17T21:58:35.226Z,3.30
2018-09-17T22:01:04.889Z,3.20
2018-09-17T22:03:35.116Z,3.40
2018-09-17T22:06:04.492Z,3.20
2018-09-17T22:08:33.758Z,3.20
2018-09-17T22:11:04.015Z,3.50
2018-09-17T22:13:33.239Z,3.47
2018-09-17T22:16:02.511Z,3.13
2018-09-17T22:18:31.762Z,3.70
2018-09-17T22:21:01.102Z,4.10
2018-09-17T22:23:30.373Z,3.70
2018-09-17T22:25:59.674Z,3.50
2018-09-17T22:28:29.433Z,3.70
2018-09-17T22:30:58.831Z,3.77
2018-09-17T22:33:28.083Z,3.80
2018-09-17T22:35:57.430Z,3.70
2018-09-17T22:38:26.714Z,4.17
2018-09-17T22:40:56.483Z,3.67
2018-09-17T22:43:25.850Z,3.90
2018-09-17T22:45:55.515Z,4.10
2018-09-17T22:48:24.856Z,3.90
2018-09-17T22:50:54.190Z,3.77
2018-09-17T22:53:23.867Z,3.70
2018-09-17T22:55:53.124Z,3.93
2018-09-17T22:58:22.392Z,4.00
2018-09-17T23:00:51.628Z,3.87
2018-09-17T23:03:21.344Z,4.23
2018-09-17T23:05:50.587Z,4.13
2018-09-17T23:08:19.898Z,4.03
2018-09-17T23:10:49.193Z,4.63
2018-09-17T23:13:18.479Z,4.67
2018-09-17T23:15:47.816Z,4.23
2018-09-17T23:18:17.181Z,4.27
2018-09-17T23:20:46.490Z,4.03
2018-09-17T23:23:15.850Z,4.70
2018-09-17T23:25:45.180Z,3.97
2018-09-17T23:28:14.640Z,4.37
2018-09-17T23:30:43.914Z,4.50
2018-09-17T23:33:13.195Z,4.30
2018-09-17T23:35:42.458Z,4.57
2018-09-17T23:38:11.757Z,3.90
2018-09-17T23:40:46.998Z,4.77
2018-09-17T23:43:16.267Z,4.03
2018-09-17T23:45:45.524Z,4.10
2018-09-17T23:48:14.836Z,4.20
2018-09-17T23:50:44.439Z,4.43
2018-09-17T23:53:13.773Z,4.30
2018-09-17T23:55:43.085Z,4.27
2018-09-17T23:58:12.352Z,4.10
